Time;durP1;ratioP1;P1;durP2;ratioP2;P2;SDS_P1;SDS_P2;PMS_P1;PMS_P2;Temp;Humidity;BMP_temperature;BMP_pressure;BME280_temperature;BME280_humidity;BME280_pressure;Samples;Min_cycle;Max_cycle;Signal;HPM_P1;HPM_P2
2021/12/09 09:31:20;;;;;;;17.58;6.05;;;;;;;;;;6223124;22;20437;-87
2021/12/09 09:33:46;;;;;;;15.57;7.43;;;;;;;;;;6246850;23;20450;-86
2021/12/09 09:36:12;;;;;;;18.85;6.50;;;;;;;;;;6247745;23;20027;-86
2021/12/09 09:38:37;;;;;;;20.33;7.20;;;;;;;;;;6247692;22;20461;-81
2021/12/09 09:41:09;;;;;;;10.90;5.50;;;;;;;;;;6247601;23;20004;-82
2021/12/09 09:43:55;;;;;;;30.90;7.15;;;;;;;;;;6247578;23;20000;-81
2021/12/09 09:46:26;;;;;;;51.08;8.60;;;;;;;;;;6247391;23;20000;-81
2021/12/09 09:48:53;;;;;;;22.70;6.30;;;;;;;;;;6247413;22;20012;-81
2021/12/09 09:51:20;;;;;;;8.65;5.72;;;;;;;;;;6246080;23;20060;-87
2021/12/09 09:53:46;;;;;;;13.82;7.35;;;;;;;;;;6247367;23;20000;-80
2021/12/09 09:56:18;;;;;;;16.25;7.55;;;;;;;;;;6247246;23;20004;-83
2021/12/09 09:59:04;;;;;;;9.52;5.63;;;;;;;;;;6246990;22;20004;-81
2021/12/09 10:01:34;;;;;;;10.98;6.95;;;;;;;;;;6247150;23;20001;-80
2021/12/09 10:04:13;;;;;;;22.80;12.35;;;;;;;;;;6220264;23;20449;-78
2021/12/09 10:06:44;;;;;;;19.77;8.88;;;;;;;;;;6247197;23;20328;-86
2021/12/09 10:09:11;;;;;;;17.80;8.68;;;;;;;;;;6247112;22;20067;-84
2021/12/09 10:11:37;;;;;;;8.55;5.60;;;;;;;;;;6220359;23;20426;-82
2021/12/09 10:14:10;;;;;;;7.97;5.10;;;;;;;;;;6247541;23;20046;-80
2021/12/09 10:16:38;;;;;;;11.27;5.30;;;;;;;;;;6247274;23;19996;-85
2021/12/09 10:19:16;;;;;;;7.13;5.28;;;;;;;;;;6245392;23;20382;-84
2021/12/09 10:21:43;;;;;;;14.70;7.22;;;;;;;;;;6247405;23;20473;-82
2021/12/09 10:24:08;;;;;;;9.82;5.90;;;;;;;;;;6246932;23;20089;-80
2021/12/09 10:26:35;;;;;;;13.68;8.65;;;;;;;;;;6247010;23;20000;-79
2021/12/09 10:29:04;;;;;;;8.45;6.45;;;;;;;;;;6219993;23;20004;-85
2021/12/09 10:31:46;;;;;;;5.95;5.35;;;;;;;;;;6247121;23;20000;-84
2021/12/09 10:37:23;;;;;;;8.85;5.57;;;;;;;;;;6257586;23;20008;-83
2021/12/09 10:39:59;;;;;;;6.93;4.53;;;;;;;;;;6242695;22;20427;-86
2021/12/09 10:42:26;;;;;;;3.10;2.78;;;;;;;;;;6246975;23;20003;-86
2021/12/09 10:44:56;;;;;;;2.67;2.17;;;;;;;;;;6247053;23;20327;-81
2021/12/09 10:53:31;;;;;;;2.63;1.75;;;;;;;;;;6200812;23;20058;-88
2021/12/09 10:55:55;;;;;;;3.38;2.30;;;;;;;;;;6246774;23;20416;-81
2021/12/09 10:58:22;;;;;;;3.00;2.08;;;;;;;;;;6247105;22;20004;-82
2021/12/09 11:01:13;;;;;;;2.00;1.80;;;;;;;;;;6246879;23;19996;-83
2021/12/09 11:03:57;;;;;;;2.83;2.00;;;;;;;;;;6245590;23;20004;-83
2021/12/09 11:06:29;;;;;;;1.83;1.50;;;;;;;;;;6246884;23;20023;-82
2021/12/09 11:08:57;;;;;;;2.22;2.00;;;;;;;;;;6246660;22;20363;-82
2021/12/09 11:11:30;;;;;;;2.38;1.63;;;;;;;;;;6246522;23;20032;-83
2021/12/09 11:14:14;;;;;;;2.03;1.60;;;;;;;;;;6219822;23;20083;-83
2021/12/09 11:16:44;;;;;;;3.38;2.55;;;;;;;;;;6246961;23;19996;-83
2021/12/09 11:19:19;;;;;;;5.55;4.13;;;;;;;;;;6246379;22;20028;-86
2021/12/09 11:21:55;;;;;;;4.65;3.70;;;;;;;;;;6246487;23;19996;-85
2021/12/09 11:24:22;;;;;;;5.68;4.70;;;;;;;;;;6219850;23;20007;-80
2021/12/09 11:27:01;;;;;;;6.15;5.20;;;;;;;;;;6247193;23;20008;-83
2021/12/09 11:29:28;;;;;;;7.07;5.82;;;;;;;;;;6246739;22;20012;-84
2021/12/09 11:32:26;;;;;;;6.70;5.10;;;;;;;;;;6246703;23;20015;-83
2021/12/09 11:35:01;;;;;;;6.95;5.88;;;;;;;;;;6246822;23;20004;-82
2021/12/09 11:40:06;;;;;;;8.55;6.60;;;;;;;;;;6248589;22;20367;-85
2021/12/09 11:42:39;;;;;;;6.28;5.65;;;;;;;;;;6246949;23;20012;-85
2021/12/09 11:45:09;;;;;;;7.60;5.35;;;;;;;;;;6246951;23;20058;-87
2021/12/09 11:47:38;;;;;;;;;;;;;;;;;;6247748;23;20083;-90
2021/12/09 11:50:05;;;;;;;5.32;4.07;;;;;;;;;;6247001;22;20315;-86
2021/12/09 11:52:31;;;;;;;5.60;4.38;;;;;;;;;;6247975;23;20050;-93
2021/12/09 11:55:02;;;;;;;7.18;5.80;;;;;;;;;;6221094;23;20016;-92
2021/12/09 11:57:41;;;;;;;8.23;5.65;;;;;;;;;;6220144;23;20015;-86
2021/12/09 12:13:08;;;;;;;11.60;8.30;;;;;;;;;;6246777;23;20011;-86
2021/12/09 12:15:42;;;;;;;;;;;;;;;;;;6245968;23;20008;-80
2021/12/09 12:40:50;;;;;;;10.38;7.03;;;;;;;;;;6247999;23;20011;-80
2021/12/09 12:43:38;;;;;;;11.35;8.45;;;;;;;;;;6247282;23;20044;-79
2021/12/09 12:46:13;;;;;;;15.25;10.88;;;;;;;;;;6248008;23;20079;-80
2021/12/09 17:19:13;;;;;;;32.80;18.52;;;;;;;;;;6029275;22;4530726;-82
2021/12/09 17:21:40;;;;;;;26.73;16.67;;;;;;;;;;6214291;23;20098;-82
2021/12/09 17:24:08;;;;;;;26.23;16.38;;;;;;;;;;6214236;23;20446;-83
2021/12/09 17:26:36;;;;;;;20.25;12.70;;;;;;;;;;6200995;23;20044;-82
2021/12/09 17:29:04;;;;;;;21.55;12.70;;;;;;;;;;6185527;23;20001;-82
2021/12/09 17:31:39;;;;;;;20.15;11.82;;;;;;;;;;6185669;23;20005;-83
2021/12/09 17:34:06;;;;;;;17.98;12.05;;;;;;;;;;6185726;23;20324;-83
2021/12/09 17:36:33;;;;;;;20.75;12.02;;;;;;;;;;6185721;23;20005;-83
2021/12/09 17:39:00;;;;;;;16.02;10.23;;;;;;;;;;6185755;23;20454;-83
2021/12/09 17:41:25;;;;;;;16.13;10.77;;;;;;;;;;6185851;23;20016;-83
2021/12/09 17:43:50;;;;;;;17.77;10.73;;;;;;;;;;6184277;23;20425;-83
2021/12/09 17:46:16;;;;;;;13.90;9.82;;;;;;;;;;6185484;23;20374;-83
2021/12/09 17:48:42;;;;;;;16.27;10.40;;;;;;;;;;6187365;23;20028;-82
2021/12/09 17:51:14;;;;;;;16.45;10.88;;;;;;;;;;6186528;23;20332;-82
2021/12/09 17:53:40;;;;;;;16.95;10.80;;;;;;;;;;6187907;23;20005;-82
2021/12/09 17:56:05;;;;;;;17.40;11.45;;;;;;;;;;6186659;23;20085;-85
2021/12/09 17:58:33;;;;;;;16.27;10.30;;;;;;;;;;6188300;23;20012;-83
2021/12/09 18:01:00;;;;;;;16.50;11.13;;;;;;;;;;6191634;23;20001;-84
2021/12/09 18:03:26;;;;;;;16.75;10.38;;;;;;;;;;6189206;23;20324;-82
2021/12/09 18:05:52;;;;;;;16.20;9.70;;;;;;;;;;6188832;23;20005;-83
2021/12/09 18:08:18;;;;;;;13.05;9.32;;;;;;;;;;6190552;23;20001;-83
2021/12/09 18:10:48;;;;;;;15.20;10.00;;;;;;;;;;6189322;23;20076;-82
2021/12/09 18:13:15;;;;;;;16.83;10.45;;;;;;;;;;6186928;23;20016;-83
2021/12/09 18:15:41;;;;;;;18.33;10.70;;;;;;;;;;6188736;23;20080;-82
2021/12/09 18:18:09;;;;;;;18.33;10.77;;;;;;;;;;6188306;23;20001;-83
2021/12/09 18:20:35;;;;;;;26.60;13.27;;;;;;;;;;6187369;23;20092;-82
2021/12/09 18:23:01;;;;;;;21.73;10.25;;;;;;;;;;6189284;23;20001;-83
2021/12/09 18:25:27;;;;;;;17.88;11.40;;;;;;;;;;6188583;23;20008;-83
2021/12/09 18:27:52;;;;;;;26.27;15.02;;;;;;;;;;6189140;23;20043;-83
2021/12/09 18:30:21;;;;;;;17.63;10.98;;;;;;;;;;6189845;23;20345;-83
2021/12/09 18:32:47;;;;;;;15.23;10.63;;;;;;;;;;6188888;23;20399;-81
2021/12/09 18:35:13;;;;;;;17.48;11.15;;;;;;;;;;6188784;23;20020;-82
2021/12/09 18:37:50;;;;;;;16.38;10.68;;;;;;;;;;6190199;23;20001;-82
2021/12/09 18:40:17;;;;;;;13.90;9.35;;;;;;;;;;6187585;23;20083;-82
2021/12/09 18:42:43;;;;;;;19.20;10.35;;;;;;;;;;6187034;23;20035;-82
2021/12/09 18:45:11;;;;;;;15.07;9.68;;;;;;;;;;6188756;23;20392;-83
2021/12/09 18:47:37;;;;;;;13.88;9.48;;;;;;;;;;6188408;23;20084;-83
2021/12/09 18:50:05;;;;;;;21.48;13.00;;;;;;;;;;6188684;23;20037;-83
2021/12/09 18:52:31;;;;;;;20.05;11.63;;;;;;;;;;6187854;23;20012;-82
2021/12/09 18:54:57;;;;;;;22.65;13.65;;;;;;;;;;6188735;23;20005;-82
2021/12/09 18:57:23;;;;;;;21.40;12.88;;;;;;;;;;6189077;23;20009;-82
2021/12/09 18:59:50;;;;;;;18.45;11.27;;;;;;;;;;6187392;23;20005;-82
2021/12/09 19:02:15;;;;;;;18.35;11.90;;;;;;;;;;6187542;23;20009;-83
2021/12/09 19:04:41;;;;;;;16.80;10.23;;;;;;;;;;6188972;23;20007;-82
2021/12/09 19:07:07;;;;;;;16.52;10.70;;;;;;;;;;6189241;23;20005;-82
2021/12/09 19:09:33;;;;;;;16.17;11.10;;;;;;;;;;6187286;23;20031;-82
2021/12/09 19:11:59;;;;;;;17.45;11.57;;;;;;;;;;6186989;23;20446;-81
2021/12/09 19:14:25;;;;;;;17.08;12.02;;;;;;;;;;6188309;23;20076;-82
2021/12/09 19:16:55;;;;;;;19.35;12.18;;;;;;;;;;6186266;23;20009;-83
2021/12/09 19:19:22;;;;;;;17.58;11.02;;;;;;;;;;6188967;23;20017;-83
2021/12/09 19:21:48;;;;;;;18.40;11.25;;;;;;;;;;6187333;23;20008;-83
2021/12/09 19:24:15;;;;;;;15.25;10.63;;;;;;;;;;6187030;23;19997;-84
2021/12/09 19:26:46;;;;;;;17.02;11.13;;;;;;;;;;6186488;23;20005;-84
2021/12/09 19:29:12;;;;;;;15.18;10.40;;;;;;;;;;6185182;23;20391;-82
2021/12/09 19:31:38;;;;;;;16.75;10.30;;;;;;;;;;6186726;23;20024;-85
2021/12/09 19:34:05;;;;;;;15.85;9.57;;;;;;;;;;6186916;23;20084;-83
2021/12/09 19:36:31;;;;;;;14.68;9.70;;;;;;;;;;6186511;23;19997;-83
2021/12/09 19:39:07;;;;;;;17.00;10.40;;;;;;;;;;6185406;23;20001;-83
2021/12/09 19:41:33;;;;;;;19.65;12.85;;;;;;;;;;6187426;23;20076;-85
2021/12/09 19:43:59;;;;;;;27.63;16.85;;;;;;;;;;6186985;23;20313;-84
2021/12/09 19:46:25;;;;;;;19.48;12.55;;;;;;;;;;6186598;23;20072;-82
2021/12/09 19:48:53;;;;;;;17.40;11.13;;;;;;;;;;6186793;23;20409;-83
2021/12/09 19:51:20;;;;;;;20.08;12.18;;;;;;;;;;6186972;23;20079;-83
2021/12/09 19:53:46;;;;;;;17.65;11.32;;;;;;;;;;6185414;23;20424;-83
2021/12/09 19:56:13;;;;;;;15.73;10.95;;;;;;;;;;6186387;23;20001;-83
2021/12/09 19:58:40;;;;;;;19.23;11.88;;;;;;;;;;6186515;23;20001;-85
2021/12/09 20:01:07;;;;;;;17.17;10.63;;;;;;;;;;6186268;23;20333;-83
2021/12/09 20:03:34;;;;;;;17.17;9.95;;;;;;;;;;6186400;23;20340;-83
2021/12/09 20:06:04;;;;;;;15.82;10.45;;;;;;;;;;6186395;23;20051;-83
2021/12/09 20:08:33;;;;;;;17.57;11.20;;;;;;;;;;6186683;23;20009;-84
2021/12/09 20:11:01;;;;;;;14.32;9.32;;;;;;;;;;6186330;23;20025;-83
2021/12/09 20:13:27;;;;;;;14.05;8.52;;;;;;;;;;6197154;23;20333;-87
2021/12/09 20:15:53;;;;;;;16.30;10.40;;;;;;;;;;6185701;23;20001;-87
2021/12/09 20:18:18;;;;;;;12.82;8.10;;;;;;;;;;6187085;23;20008;-87
2021/12/09 20:20:45;;;;;;;13.48;8.57;;;;;;;;;;6184609;23;20093;-89
2021/12/09 20:23:11;;;;;;;17.00;10.70;;;;;;;;;;6186337;23;20032;-82
2021/12/09 20:25:36;;;;;;;13.40;8.82;;;;;;;;;;6185901;23;19997;-83
2021/12/09 20:28:02;;;;;;;11.50;7.90;;;;;;;;;;6186032;23;20009;-82
2021/12/09 20:30:28;;;;;;;13.80;8.98;;;;;;;;;;6186146;23;20035;-83
2021/12/09 20:32:56;;;;;;;12.10;8.00;;;;;;;;;;6186212;23;20005;-87
2021/12/09 20:35:24;;;;;;;10.15;6.90;;;;;;;;;;6186216;23;20005;-84
2021/12/09 20:37:50;;;;;;;15.13;9.95;;;;;;;;;;6186232;23;20009;-85
2021/12/09 20:40:16;;;;;;;13.20;8.25;;;;;;;;;;6186246;23;20449;-86
2021/12/09 20:42:41;;;;;;;12.70;7.97;;;;;;;;;;6184626;23;20397;-86
2021/12/09 20:45:08;;;;;;;11.98;7.63;;;;;;;;;;6184576;23;20001;-83
2021/12/09 20:47:39;;;;;;;9.05;6.53;;;;;;;;;;6185868;23;20020;-84
2021/12/09 20:50:12;;;;;;;11.00;6.93;;;;;;;;;;6186013;23;20425;-82
2021/12/09 20:52:38;;;;;;;10.15;6.22;;;;;;;;;;6186202;23;20009;-83
2021/12/09 20:55:04;;;;;;;8.57;6.05;;;;;;;;;;6186096;23;20005;-82
2021/12/09 20:57:30;;;;;;;8.25;4.97;;;;;;;;;;6184404;23;20001;-83
2021/12/09 20:59:56;;;;;;;7.63;5.50;;;;;;;;;;6185586;23;20005;-83
2021/12/09 21:02:21;;;;;;;7.80;5.80;;;;;;;;;;6185686;23;20005;-82
2021/12/09 21:04:47;;;;;;;9.77;6.13;;;;;;;;;;6185819;23;20305;-83
2021/12/09 21:07:12;;;;;;;14.05;6.60;;;;;;;;;;6185920;23;20005;-82
2021/12/09 21:09:38;;;;;;;8.43;5.03;;;;;;;;;;6185969;23;20024;-82
2021/12/09 21:12:04;;;;;;;9.07;5.60;;;;;;;;;;6185841;23;20032;-83
2021/12/09 21:14:30;;;;;;;9.68;5.32;;;;;;;;;;6185028;23;20001;-83
2021/12/09 21:16:57;;;;;;;8.13;4.68;;;;;;;;;;6186319;23;20008;-82
2021/12/09 21:19:22;;;;;;;8.57;5.10;;;;;;;;;;6185916;23;20238;-82
2021/12/09 21:21:49;;;;;;;9.35;5.97;;;;;;;;;;6186257;23;20009;-82
2021/12/09 21:24:15;;;;;;;8.70;4.97;;;;;;;;;;6187371;23;20417;-82
2021/12/09 21:26:41;;;;;;;8.55;5.63;;;;;;;;;;6186703;23;20005;-84
2021/12/09 21:29:08;;;;;;;12.32;7.85;;;;;;;;;;6188251;23;20009;-84
2021/12/09 21:31:34;;;;;;;10.82;7.20;;;;;;;;;;6187890;23;20091;-83
2021/12/09 21:34:04;;;;;;;11.43;7.30;;;;;;;;;;6188092;23;20302;-82
2021/12/09 21:36:42;;;;;;;8.35;6.00;;;;;;;;;;6187857;23;20007;-82
2021/12/09 21:39:10;;;;;;;8.13;6.05;;;;;;;;;;6188286;23;20394;-83
2021/12/09 21:41:36;;;;;;;9.90;6.53;;;;;;;;;;6187968;23;20483;-83
2021/12/09 21:44:01;;;;;;;9.60;6.45;;;;;;;;;;6187924;23;20005;-82
2021/12/09 21:46:27;;;;;;;7.95;5.30;;;;;;;;;;6186323;23;20001;-82
2021/12/09 21:48:52;;;;;;;9.73;5.50;;;;;;;;;;6188022;23;20084;-84
2021/12/09 21:51:18;;;;;;;12.73;7.00;;;;;;;;;;6187724;23;19997;-83
2021/12/09 21:53:43;;;;;;;11.98;7.68;;;;;;;;;;6187813;23;20055;-82
2021/12/09 21:56:09;;;;;;;13.55;7.70;;;;;;;;;;6187584;23;20032;-83
2021/12/09 21:58:35;;;;;;;11.82;7.43;;;;;;;;;;6187713;23;20443;-82
2021/12/09 22:01:00;;;;;;;11.15;7.53;;;;;;;;;;6186321;23;20020;-83
2021/12/09 22:03:26;;;;;;;7.07;5.25;;;;;;;;;;6186363;23;20012;-83
2021/12/09 22:05:52;;;;;;;9.75;6.55;;;;;;;;;;6186233;23;20001;-83
2021/12/09 22:08:17;;;;;;;13.98;9.02;;;;;;;;;;6187746;23;20032;-85
2021/12/09 22:10:43;;;;;;;11.65;8.40;;;;;;;;;;6187809;23;20065;-83
2021/12/09 22:13:10;;;;;;;13.77;8.18;;;;;;;;;;6187581;23;20488;-83
2021/12/09 22:15:38;;;;;;;12.48;9.25;;;;;;;;;;6187949;23;20032;-83
2021/12/09 22:18:03;;;;;;;14.77;9.45;;;;;;;;;;6187585;23;20329;-84
2021/12/09 22:20:29;;;;;;;14.27;8.52;;;;;;;;;;6187694;23;20009;-84
2021/12/09 22:22:55;;;;;;;12.20;8.63;;;;;;;;;;6187682;23;20025;-83
2021/12/09 22:25:20;;;;;;;10.38;7.43;;;;;;;;;;6187345;23;20001;-83
2021/12/09 22:27:45;;;;;;;12.88;8.32;;;;;;;;;;6187864;23;20080;-83
2021/12/09 22:30:11;;;;;;;15.23;8.85;;;;;;;;;;6187697;23;20051;-83
2021/12/09 22:32:37;;;;;;;5.25;3.88;;;;;;;;;;6185750;23;20013;-85
2021/12/09 22:35:03;;;;;;;8.00;4.93;;;;;;;;;;6187234;23;20009;-82
2021/12/09 22:37:29;;;;;;;9.93;6.18;;;;;;;;;;6185655;23;20009;-84
2021/12/09 22:39:54;;;;;;;31.08;15.05;;;;;;;;;;6187230;23;20004;-82
2021/12/09 22:42:20;;;;;;;46.70;19.67;;;;;;;;;;6187331;23;20005;-83
2021/12/09 22:44:45;;;;;;;29.63;14.25;;;;;;;;;;6187173;23;20080;-82
2021/12/09 22:47:12;;;;;;;60.17;24.60;;;;;;;;;;6185823;23;20405;-84
2021/12/09 22:49:43;;;;;;;144.80;48.63;;;;;;;;;;6187649;23;20039;-84
2021/12/09 22:52:10;;;;;;;20.45;10.88;;;;;;;;;;6187435;23;20391;-82
2021/12/09 22:54:36;;;;;;;16.45;10.27;;;;;;;;;;6187230;23;20006;-83
2021/12/09 22:57:05;;;;;;;15.63;11.35;;;;;;;;;;6187323;23;20008;-84
2021/12/09 22:59:31;;;;;;;16.00;11.05;;;;;;;;;;6187682;23;20001;-83
2021/12/09 23:01:57;;;;;;;14.98;9.40;;;;;;;;;;6185430;23;20013;-83
2021/12/09 23:04:23;;;;;;;15.45;10.30;;;;;;;;;;6187113;23;20040;-83
2021/12/09 23:06:50;;;;;;;15.75;10.60;;;;;;;;;;6187063;23;20005;-83
2021/12/09 23:09:17;;;;;;;13.73;9.70;;;;;;;;;;6187098;23;20425;-82
2021/12/09 23:11:46;;;;;;;11.90;8.55;;;;;;;;;;6186831;23;20009;-82
2021/12/09 23:14:43;;;;;;;12.02;7.63;;;;;;;;;;6186933;23;20036;-83
2021/12/09 23:17:13;;;;;;;13.45;8.57;;;;;;;;;;6186725;23;20067;-83
2021/12/09 23:19:38;;;;;;;10.55;7.60;;;;;;;;;;6186629;23;20024;-85
2021/12/09 23:22:06;;;;;;;8.00;5.82;;;;;;;;;;6186889;23;20072;-83
2021/12/09 23:24:32;;;;;;;5.30;3.78;;;;;;;;;;6187160;23;20421;-85
